Time;durP1;ratioP1;P1;durP2;ratioP2;P2;SDS_P1;SDS_P2;PMS_P1;PMS_P2;Temp;Humidity;BMP_temperature;BMP_pressure;BME280_temperature;BME280_humidity;BME280_pressure;Samples;Min_cycle;Max_cycle;Signal;HPM_P1;HPM_P2
2022/04/01 00:00:47;;;;;;;21.27;15.02;;;;;;;13.12;78.47;97379.66;4516218;31;33742;-70
2022/04/01 00:03:15;;;;;;;19.67;13.55;;;;;;;13.06;78.73;97375.50;4517295;31;34438;-65
2022/04/01 00:05:42;;;;;;;20.88;14.77;;;;;;;12.97;79.29;97380.19;4516827;31;35426;-65
2022/04/01 00:08:11;;;;;;;20.60;13.70;;;;;;;13.10;78.85;97378.41;4517109;31;34355;-66
2022/04/01 00:10:40;;;;;;;21.17;14.15;;;;;;;13.05;79.03;97373.94;4517143;31;33934;-66
2022/04/01 00:13:07;;;;;;;22.87;14.77;;;;;;;13.00;79.37;97376.00;4516696;31;33550;-67
2022/04/01 00:15:35;;;;;;;22.25;15.27;;;;;;;13.21;78.25;97376.12;4515807;31;34136;-69
2022/04/01 00:18:03;;;;;;;24.12;15.23;;;;;;;13.26;77.78;97378.66;4516667;31;34284;-70
2022/04/01 00:20:31;;;;;;;27.17;16.90;;;;;;;13.02;78.55;97371.03;4516836;31;33815;-70
2022/04/01 00:22:59;;;;;;;26.37;17.00;;;;;;;12.82;79.78;97376.03;4516447;31;34826;-67
2022/04/01 00:25:27;;;;;;;27.08;17.10;;;;;;;12.90;79.79;97377.94;4517315;31;34470;-71
2022/04/01 00:27:54;;;;;;;24.90;16.02;;;;;;;12.97;79.68;97382.91;4516547;31;35102;-67
2022/04/01 00:30:22;;;;;;;27.98;17.85;;;;;;;12.64;80.96;97374.47;4516670;31;33427;-62
2022/04/01 00:32:50;;;;;;;26.98;17.27;;;;;;;12.24;83.10;97359.06;4516688;31;33989;-68
2022/04/01 00:35:17;;;;;;;26.33;17.70;;;;;;;12.65;81.25;97362.44;4516841;31;33722;-66
2022/04/01 00:37:44;;;;;;;28.73;16.02;;;;;;;12.54;82.08;97377.50;4516774;31;34011;-67
2022/04/01 00:40:12;;;;;;;31.80;17.98;;;;;;;12.89;80.04;97367.38;4516968;31;34066;-67
2022/04/01 00:42:41;;;;;;;32.25;18.48;;;;;;;12.98;79.71;97361.91;4516713;31;34646;-69
2022/04/01 00:45:10;;;;;;;28.75;18.52;;;;;;;12.85;79.65;97360.97;4517155;31;35082;-68
2022/04/01 00:47:39;;;;;;;30.92;18.90;;;;;;;12.55;81.93;97346.44;4515883;31;34295;-68
2022/04/01 00:50:07;;;;;;;34.75;18.30;;;;;;;12.80;80.40;97345.62;4516803;31;34646;-65
2022/04/01 00:52:36;;;;;;;34.22;17.30;;;;;;;12.68;80.67;97354.44;4516955;31;33790;-66
2022/04/01 00:55:05;;;;;;;32.13;18.20;;;;;;;12.57;81.62;97357.78;4516786;31;33652;-65
2022/04/01 00:57:33;;;;;;;31.62;18.23;;;;;;;12.99;79.35;97352.66;4516316;31;34206;-66
2022/04/01 01:00:00;;;;;;;32.72;18.08;;;;;;;12.79;80.54;97352.19;4516693;31;33628;-69
2022/04/01 01:02:29;;;;;;;27.65;16.87;;;;;;;12.67;81.56;97347.38;4516544;31;34730;-65
2022/04/01 01:04:57;;;;;;;33.50;19.77;;;;;;;12.35;83.20;97345.97;4516724;31;35074;-69
2022/04/01 01:07:24;;;;;;;33.72;19.85;;;;;;;12.83;80.41;97349.63;4516220;31;34122;-63
2022/04/01 01:09:52;;;;;;;36.13;17.15;;;;;;;12.91;80.23;97359.69;4515410;31;33800;-68
2022/04/01 01:12:20;;;;;;;35.95;19.05;;;;;;;12.69;81.05;97366.13;4515540;31;35030;-68
2022/04/01 01:14:48;;;;;;;30.50;17.55;;;;;;;13.03;79.27;97364.50;4516580;31;34032;-68
2022/04/01 01:17:15;;;;;;;35.50;19.37;;;;;;;12.27;83.12;97360.38;4516141;31;34002;-66
2022/04/01 01:19:46;;;;;;;32.47;17.92;;;;;;;12.56;82.44;97358.94;4516189;31;34632;-68
2022/04/01 01:22:14;;;;;;;37.55;19.55;;;;;;;12.66;81.37;97359.41;4516870;31;33732;-68
2022/04/01 01:24:43;;;;;;;35.85;20.02;;;;;;;12.67;81.00;97360.19;4516370;31;34087;-63
2022/04/01 01:27:13;;;;;;;30.77;17.08;;;;;;;12.66;81.29;97361.34;4516159;31;34186;-69
2022/04/01 01:29:42;;;;;;;32.97;18.67;;;;;;;12.58;81.95;97362.13;4516493;31;34533;-66
2022/04/01 01:32:11;;;;;;;30.23;17.67;;;;;;;12.53;82.64;97357.66;4516406;31;34004;-68
2022/04/01 01:34:40;;;;;;;31.30;17.08;;;;;;;12.56;82.15;97364.37;4515961;31;35066;-67
2022/04/01 01:37:11;;;;;;;30.27;17.30;;;;;;;12.60;82.57;97357.19;4516621;31;33935;-68
2022/04/01 01:39:40;;;;;;;28.60;17.30;;;;;;;12.74;81.73;97352.34;4516757;31;33428;-63
2022/04/01 01:42:08;;;;;;;35.63;19.30;;;;;;;12.67;82.18;97352.03;4516537;31;34084;-68
2022/04/01 01:44:35;;;;;;;28.98;17.35;;;;;;;13.01;79.96;97347.69;4516251;31;34284;-68
2022/04/01 01:47:04;;;;;;;31.20;17.42;;;;;;;12.96;80.28;97353.28;4516466;31;34107;-64
2022/04/01 01:49:32;;;;;;;30.80;18.25;;;;;;;13.00;80.01;97362.41;4515632;31;33803;-67
2022/04/01 01:55:00;;;;;;;25.90;14.55;;;;;;;12.69;81.90;97349.81;4487262;31;35085;-63
2022/04/01 01:57:29;;;;;;;32.60;17.92;;;;;;;12.99;80.18;97364.31;4515854;31;34300;-64
2022/04/01 01:59:56;;;;;;;31.83;17.30;;;;;;;12.80;80.81;97355.72;4516348;31;34658;-68
2022/04/01 02:02:24;;;;;;;33.97;17.42;;;;;;;12.50;82.68;97350.94;4516320;31;34049;-68
2022/04/01 02:04:52;;;;;;;32.63;18.45;;;;;;;13.04;79.70;97345.09;4516040;31;34288;-64
2022/04/01 02:07:20;;;;;;;28.80;16.20;;;;;;;13.00;79.52;97348.78;4516012;31;35078;-68
2022/04/01 02:09:48;;;;;;;29.85;16.75;;;;;;;12.95;80.19;97347.03;4516363;31;33377;-64
2022/04/01 02:12:18;;;;;;;25.40;15.77;;;;;;;13.11;79.64;97352.78;4516240;31;33815;-66
2022/04/01 02:14:46;;;;;;;26.20;15.27;;;;;;;12.88;80.81;97354.91;4515884;31;34150;-63
2022/04/01 02:17:13;;;;;;;25.35;15.90;;;;;;;12.99;80.19;97349.94;4515814;31;34916;-65
2022/04/01 02:19:41;;;;;;;25.52;15.25;;;;;;;13.51;77.83;97344.34;4516151;31;34298;-63
2022/04/01 02:22:10;;;;;;;26.98;15.25;;;;;;;12.92;80.25;97348.50;4516466;31;34836;-68
2022/04/01 02:24:38;;;;;;;26.23;15.52;;;;;;;13.04;79.71;97347.03;4515534;31;34975;-62
2022/04/01 02:27:07;;;;;;;23.90;15.35;;;;;;;13.16;79.26;97340.94;4516066;31;33966;-64
2022/04/01 02:29:35;;;;;;;21.80;13.48;;;;;;;13.20;78.62;97342.66;4516293;31;33649;-66
2022/04/01 02:32:07;;;;;;;26.55;14.38;;;;;;;13.03;79.49;97332.63;4515835;31;34024;-64
2022/04/01 02:34:37;;;;;;;22.15;13.65;;;;;;;12.70;81.14;97326.94;4516239;31;35053;-64
2022/04/01 02:37:04;;;;;;;28.38;15.80;;;;;;;12.39;82.82;97316.22;4515828;31;35065;-67
2022/04/01 02:39:32;;;;;;;26.67;15.98;;;;;;;12.57;82.47;97314.28;4515847;31;34449;-66
2022/04/01 02:42:00;;;;;;;28.45;16.92;;;;;;;12.58;82.16;97308.53;4516279;31;33777;-64
2022/04/01 02:44:27;;;;;;;31.67;20.30;;;;;;;12.91;80.46;97313.44;4515854;31;34075;-68
2022/04/01 02:46:55;;;;;;;27.67;16.60;;;;;;;13.15;78.47;97318.31;4515508;31;34854;-65
2022/04/01 02:49:23;;;;;;;25.52;15.60;;;;;;;12.81;80.43;97330.12;4515362;31;33662;-64
2022/04/01 02:51:53;;;;;;;25.45;14.85;;;;;;;12.62;81.73;97330.44;4516254;31;34943;-64
2022/04/01 02:54:21;;;;;;;23.45;15.23;;;;;;;12.80;81.04;97320.34;4515797;31;34736;-64
2022/04/01 02:56:49;;;;;;;21.00;13.93;;;;;;;12.98;79.52;97319.19;4515915;31;32470;-68
2022/04/01 02:59:16;;;;;;;20.85;12.77;;;;;;;12.84;80.19;97313.13;4515285;31;33861;-68
2022/04/01 03:01:44;;;;;;;21.17;13.48;;;;;;;12.81;80.52;97314.59;4515842;31;33729;-63
2022/04/01 03:04:12;;;;;;;17.58;11.63;;;;;;;12.83;80.58;97308.78;4516094;31;34203;-66
2022/04/01 03:06:43;;;;;;;19.20;12.75;;;;;;;12.72;81.13;97294.72;4515904;31;34038;-63
2022/04/01 03:09:11;;;;;;;20.37;13.30;;;;;;;12.41;82.42;97301.16;4515737;31;34449;-64
2022/04/01 03:11:40;;;;;;;22.95;14.38;;;;;;;12.39;82.97;97300.69;4515995;31;33736;-65
2022/04/01 03:14:09;;;;;;;21.77;14.15;;;;;;;12.67;81.18;97305.78;4515491;31;35173;-63
2022/04/01 03:16:43;;;;;;;22.62;14.50;;;;;;;12.77;80.62;97310.13;4515864;31;34280;-68
2022/04/01 03:19:11;;;;;;;23.98;14.40;;;;;;;13.36;77.77;97314.94;4515456;31;34513;-69
2022/04/01 03:21:42;;;;;;;18.67;12.00;;;;;;;12.92;79.77;97342.25;4515147;31;34047;-65
2022/04/01 03:24:10;;;;;;;15.45;11.65;;;;;;;12.59;81.79;97339.25;4515953;31;34104;-64
2022/04/01 03:26:39;;;;;;;15.23;10.93;;;;;;;12.53;82.41;97319.59;4515318;31;34867;-67
2022/04/01 03:29:08;;;;;;;20.88;14.10;;;;;;;12.77;80.73;97300.03;4514567;31;33565;-67
2022/04/01 03:31:35;;;;;;;19.08;13.02;;;;;;;12.58;81.20;97285.97;4515369;31;34874;-64
2022/04/01 03:34:04;;;;;;;18.02;12.23;;;;;;;12.19;83.69;97296.69;4515485;31;34287;-64
2022/04/01 03:36:33;;;;;;;15.95;11.23;;;;;;;12.00;84.35;97312.50;4516879;31;33955;-64
2022/04/01 03:39:03;;;;;;;13.32;10.00;;;;;;;12.09;84.05;97316.03;4516702;31;33874;-69
2022/04/01 03:41:31;;;;;;;13.65;9.93;;;;;;;12.32;83.16;97316.69;4517465;31;34095;-64
2022/04/01 03:44:02;;;;;;;11.18;8.70;;;;;;;12.45;82.48;97320.38;4516233;31;34120;-69
2022/04/01 03:46:47;;;;;;;11.77;8.65;;;;;;;12.32;83.07;97325.66;4517371;31;34932;-68
2022/04/01 03:49:22;;;;;;;12.73;8.82;;;;;;;12.67;81.62;97320.19;4517262;31;34220;-66
2022/04/01 03:51:50;;;;;;;11.02;8.25;;;;;;;12.67;81.38;97322.12;4517366;31;33414;-63
2022/04/01 03:54:19;;;;;;;11.20;8.50;;;;;;;12.81;80.69;97313.78;4517289;31;34357;-68
2022/04/01 03:57:00;;;;;;;12.32;9.07;;;;;;;12.54;81.65;97325.81;4517450;31;34314;-67
2022/04/01 03:59:40;;;;;;;13.15;9.63;;;;;;;11.97;85.40;97311.25;4516954;31;33204;-67
2022/04/01 04:02:14;;;;;;;14.15;10.00;;;;;;;12.10;84.44;97320.38;4517484;31;34574;-65
2022/04/01 04:04:43;;;;;;;14.10;9.75;;;;;;;12.20;84.06;97319.25;4517012;31;34091;-64
2022/04/01 04:07:11;;;;;;;14.73;10.90;;;;;;;12.08;85.22;97314.44;4515649;31;34503;-67
2022/04/01 04:09:41;;;;;;;15.23;10.40;;;;;;;12.64;81.70;97318.13;4517521;31;33783;-63
2022/04/01 04:12:13;;;;;;;14.13;9.77;;;;;;;12.60;81.78;97319.09;4516604;31;34789;-66
2022/04/01 04:14:42;;;;;;;14.93;9.85;;;;;;;11.96;85.53;97304.19;4517273;31;35131;-65
2022/04/01 04:17:16;;;;;;;13.70;10.35;;;;;;;11.82;86.84;97284.50;4516834;31;33836;-64
2022/04/01 04:19:51;;;;;;;14.50;10.07;;;;;;;11.95;85.68;97280.06;4516386;31;34555;-65
2022/04/01 04:22:22;;;;;;;;;;;;;;;12.33;84.00;97288.37;4517614;31;33891;-63
2022/04/01 04:24:58;;;;;;;13.00;9.38;;;;;;;12.68;82.20;97283.72;4515941;31;33993;-63
2022/04/01 04:27:29;;;;;;;14.00;10.10;;;;;;;12.80;81.39;97290.41;4509202;31;34600;-67
2022/04/01 04:30:08;;;;;;;16.50;11.80;;;;;;;12.81;80.47;97284.66;4516891;31;33719;-65
2022/04/01 04:32:43;;;;;;;14.55;10.73;;;;;;;12.82;80.85;97286.22;4516811;31;34692;-68
2022/04/01 04:35:11;;;;;;;13.80;10.00;;;;;;;12.93;80.06;97289.41;4508438;31;33473;-68
2022/04/01 04:37:47;;;;;;;13.13;9.80;;;;;;;12.89;80.35;97289.28;4515512;31;34617;-69
2022/04/01 04:40:17;;;;;;;12.43;8.82;;;;;;;12.95;80.41;97297.25;4516359;31;33396;-68
2022/04/01 04:42:58;;;;;;;13.88;9.32;;;;;;;13.01;79.86;97295.97;4511178;31;34962;-68
2022/04/01 04:45:26;;;;;;;12.95;9.52;;;;;;;13.06;79.78;97304.75;4511552;31;34902;-68
2022/04/01 04:47:55;;;;;;;13.05;9.30;;;;;;;13.08;79.53;97305.22;4499411;31;34079;-68
2022/04/01 04:50:23;;;;;;;15.43;9.23;;;;;;;13.08;79.36;97318.03;4500500;31;34356;-68
2022/04/01 04:52:53;;;;;;;13.68;9.77;;;;;;;13.49;77.12;97314.69;4514280;31;34488;-67
2022/04/01 04:55:22;;;;;;;12.32;9.02;;;;;;;13.41;77.28;97314.75;4500582;31;34318;-68
2022/04/01 04:57:52;;;;;;;14.50;10.52;;;;;;;13.04;79.14;97317.09;4504933;31;34886;-68
2022/04/01 05:00:20;;;;;;;13.10;9.57;;;;;;;12.45;82.08;97309.50;4514898;31;34374;-68
2022/04/01 05:02:58;;;;;;;11.85;8.80;;;;;;;12.67;81.32;97308.50;4516198;31;32585;-69
2022/04/01 05:05:42;;;;;;;12.57;9.05;;;;;;;12.86;80.56;97305.44;4514202;31;34965;-71
2022/04/01 05:08:18;;;;;;;14.52;10.05;;;;;;;13.09;79.49;97316.94;4512296;31;34759;-71
2022/04/01 05:11:16;;;;;;;12.57;9.60;;;;;;;13.30;78.12;97326.00;4516294;31;33275;-72
2022/04/01 05:13:55;;;;;;;13.05;9.27;;;;;;;13.46;77.10;97326.25;4513689;31;34584;-70
2022/04/01 05:16:45;;;;;;;18.77;12.13;;;;;;;13.28;77.71;97325.53;4498093;31;34965;-74
2022/04/01 05:19:13;;;;;;;14.65;9.85;;;;;;;12.40;81.64;97326.78;4499128;31;34321;-73
2022/04/01 05:21:53;;;;;;;16.77;10.55;;;;;;;12.44;82.01;97319.59;4500512;31;33836;-73
2022/04/01 05:24:36;;;;;;;13.88;9.85;;;;;;;12.39;82.26;97327.09;4508312;31;33922;-65
2022/04/01 05:27:07;;;;;;;14.68;9.77;;;;;;;12.74;80.36;97327.84;4515976;31;35129;-74
2022/04/01 05:29:42;;;;;;;13.82;9.13;;;;;;;12.65;80.44;97333.31;4516405;31;32513;-73
2022/04/01 05:32:11;;;;;;;14.25;8.93;;;;;;;12.57;80.29;97325.97;4516313;31;34425;-73
2022/04/01 05:34:43;;;;;;;13.48;8.77;;;;;;;12.57;80.12;97325.97;4515098;31;34927;-69
2022/04/01 05:37:13;;;;;;;14.90;8.70;;;;;;;12.42;80.73;97321.00;4515799;31;35119;-74
2022/04/01 05:39:46;;;;;;;13.85;8.57;;;;;;;12.58;79.68;97334.94;4516091;31;34175;-74
2022/04/01 05:42:15;;;;;;;11.60;7.20;;;;;;;12.42;80.30;97323.72;4514478;31;34635;-70
2022/04/01 05:44:43;;;;;;;13.20;7.32;;;;;;;12.55;79.41;97325.50;4501324;31;33588;-68
2022/04/01 05:47:11;;;;;;;12.77;6.80;;;;;;;12.68;78.77;97321.00;4498618;31;33985;-71
2022/04/01 05:49:41;;;;;;;11.30;6.93;;;;;;;12.65;78.99;97319.72;4499589;31;34859;-71
2022/04/01 05:52:10;;;;;;;10.20;7.07;;;;;;;12.86;77.72;97322.56;4500222;31;33755;-71
2022/04/01 05:54:39;;;;;;;8.20;6.00;;;;;;;13.22;75.59;97326.81;4500240;31;33970;-71
2022/04/01 05:57:08;;;;;;;8.98;5.12;;;;;;;12.88;76.31;97328.50;4500405;31;34199;-67
2022/04/01 05:59:36;;;;;;;9.88;4.60;;;;;;;12.13;79.20;97337.94;4498408;31;33949;-70
2022/04/01 06:02:37;;;;;;;6.45;4.43;;;;;;;12.30;78.75;97335.25;4499955;31;34240;-72
2022/04/01 06:05:18;;;;;;;6.10;4.15;;;;;;;12.69;76.27;97342.44;4499534;31;34045;-72
2022/04/01 06:07:50;;;;;;;5.53;4.05;;;;;;;12.34;77.12;97329.97;4500168;31;35023;-70
2022/04/01 06:10:30;;;;;;;6.78;4.45;;;;;;;12.08;77.80;97330.75;4500192;31;34096;-70
2022/04/01 06:13:31;;;;;;;6.78;4.25;;;;;;;11.77;79.37;97325.37;4498779;31;31981;-71
2022/04/01 06:16:16;;;;;;;5.55;3.90;;;;;;;11.24;81.81;97322.50;4475611;31;33278;-71
2022/04/01 06:19:14;;;;;;;6.45;4.30;;;;;;;11.40;81.40;97322.06;4499579;31;34112;-70
2022/04/01 06:21:48;;;;;;;6.03;4.10;;;;;;;11.76;80.11;97332.72;4498875;31;34068;-71
2022/04/01 06:24:28;;;;;;;6.93;4.12;;;;;;;11.79;78.99;97329.41;4499785;31;33350;-66
2022/04/01 06:26:58;;;;;;;8.25;3.87;;;;;;;11.76;79.84;97324.59;4498596;31;34704;-70
2022/04/01 06:29:40;;;;;;;5.85;3.80;;;;;;;11.90;79.08;97321.78;4499818;31;35144;-73
2022/04/01 06:32:12;;;;;;;6.32;4.12;;;;;;;11.75;79.91;97333.03;4498528;31;34681;-67
2022/04/01 06:35:08;;;;;;;6.75;4.32;;;;;;;12.15;77.74;97330.28;4499198;31;33552;-71
2022/04/01 06:37:42;;;;;;;7.93;4.40;;;;;;;12.37;76.15;97338.28;4498902;31;34322;-66
2022/04/01 06:40:12;;;;;;;6.40;3.78;;;;;;;12.08;77.53;97336.19;4498620;31;34151;-70
2022/04/01 06:42:40;;;;;;;6.40;3.90;;;;;;;12.22;76.13;97336.81;4499388;31;34000;-72
2022/04/01 06:45:10;;;;;;;6.78;3.85;;;;;;;12.05;76.26;97331.38;4499571;31;32891;-70
2022/04/01 06:47:45;;;;;;;5.15;3.83;;;;;;;12.38;74.89;97339.09;4499001;31;32414;-69
2022/04/01 06:50:14;;;;;;;5.47;4.20;;;;;;;11.64;78.24;97341.50;4500009;31;34250;-70
2022/04/01 06:52:44;;;;;;;5.95;3.72;;;;;;;12.40;74.93;97334.16;4499821;31;34341;-71
2022/04/01 06:55:16;;;;;;;5.80;4.10;;;;;;;12.52;74.09;97343.22;4498387;31;33512;-74
2022/04/01 06:57:44;;;;;;;4.75;3.42;;;;;;;12.34;75.73;97338.94;4498467;31;33369;-69
2022/04/01 07:00:13;;;;;;;7.00;4.18;;;;;;;12.23;76.72;97335.72;4499634;31;35006;-70
2022/04/01 07:02:41;;;;;;;6.60;4.47;;;;;;;12.16;76.81;97332.69;4499169;31;34281;-70
2022/04/01 07:05:09;;;;;;;6.95;4.25;;;;;;;11.76;79.19;97335.44;4498141;31;33692;-70
2022/04/01 07:07:39;;;;;;;6.68;4.47;;;;;;;11.93;79.30;97339.38;4499544;31;33811;-70
2022/04/01 07:10:07;;;;;;;9.07;5.70;;;;;;;11.86;80.31;97339.81;4497839;31;34037;-69
2022/04/01 07:12:34;;;;;;;9.35;5.22;;;;;;;12.41;77.55;97339.25;4511936;31;35011;-70
2022/04/01 07:15:02;;;;;;;5.57;3.78;;;;;;;12.22;78.70;97346.91;4513745;31;33546;-70
2022/04/01 07:17:34;;;;;;;5.80;4.30;;;;;;;12.14;78.28;97353.94;4515709;31;34761;-68
2022/04/01 07:20:10;;;;;;;4.95;3.33;;;;;;;12.06;78.17;97360.16;4515608;31;34645;-70
2022/04/01 07:22:48;;;;;;;4.65;2.70;;;;;;;11.64;78.23;97354.25;4515602;31;34272;-69
2022/04/01 07:25:16;;;;;;;4.12;2.65;;;;;;;11.75;76.12;97357.50;4515076;31;33875;-69
2022/04/01 07:27:43;;;;;;;4.87;2.78;;;;;;;11.81;74.42;97358.94;4515426;31;34422;-69
2022/04/01 07:30:11;;;;;;;5.40;3.40;;;;;;;11.45;75.54;97359.97;4515263;31;35043;-69
2022/04/01 07:32:40;;;;;;;4.60;3.20;;;;;;;11.44;76.10;97356.41;4515335;31;34269;-68
2022/04/01 07:35:13;;;;;;;5.40;3.65;;;;;;;11.16;76.85;97361.22;4514865;31;34379;-67
2022/04/01 07:37:45;;;;;;;5.87;3.83;;;;;;;11.41;75.12;97350.84;4514331;31;33906;-68
2022/04/01 07:40:24;;;;;;;7.45;4.22;;;;;;;11.21;75.29;97352.16;4504693;31;34089;-69
2022/04/01 07:42:52;;;;;;;5.78;4.53;;;;;;;11.37;74.86;97363.44;4499413;31;34271;-70
2022/04/01 07:45:20;;;;;;;6.65;4.60;;;;;;;11.02;76.59;97360.53;4497553;31;33443;-70
2022/04/01 07:47:49;;;;;;;7.95;4.30;;;;;;;10.71;77.41;97358.56;4499263;31;33989;-70
2022/04/01 07:50:18;;;;;;;6.30;4.62;;;;;;;11.01;76.70;97367.06;4499283;31;33775;-71
2022/04/01 07:52:46;;;;;;;8.73;4.15;;;;;;;11.19;75.11;97370.69;4499370;31;33657;-69
2022/04/01 07:55:15;;;;;;;5.93;3.90;;;;;;;11.22;74.48;97370.84;4498688;31;33868;-69
2022/04/01 07:57:43;;;;;;;7.12;4.20;;;;;;;10.93;76.25;97360.47;4499209;31;34454;-70
2022/04/01 08:00:15;;;;;;;5.72;4.12;;;;;;;10.87;76.98;97375.28;4497712;31;34154;-70
2022/04/01 08:02:44;;;;;;;5.87;3.92;;;;;;;10.90;77.11;97379.28;4498393;31;33804;-70
2022/04/01 08:05:12;;;;;;;6.60;3.72;;;;;;;10.74;78.55;97379.66;4498683;31;33858;-69
2022/04/01 08:07:40;;;;;;;5.50;3.50;;;;;;;10.86;77.41;97379.91;4499237;31;34633;-71
2022/04/01 08:10:08;;;;;;;5.07;3.72;;;;;;;11.45;74.62;97387.09;4498993;31;33975;-71
2022/04/01 08:12:43;;;;;;;5.43;3.40;;;;;;;11.22;75.58;97389.06;4498954;31;33761;-70
2022/04/01 08:15:12;;;;;;;4.85;3.22;;;;;;;10.98;76.91;97392.91;4503535;31;33523;-69
2022/04/01 08:17:40;;;;;;;4.97;3.20;;;;;;;10.42;79.52;97394.22;4514762;31;34685;-71
2022/04/01 08:20:10;;;;;;;4.85;3.25;;;;;;;10.66;77.76;97391.22;4509121;31;172446;-68
2022/04/01 08:22:39;;;;;;;4.95;3.55;;;;;;;10.56;77.06;97399.59;4516598;31;34136;-69
2022/04/01 08:25:07;;;;;;;4.35;3.15;;;;;;;9.98;79.57;97398.41;4515544;31;33255;-71
2022/04/01 08:27:35;;;;;;;5.35;3.30;;;;;;;10.20;79.37;97400.38;4516081;31;33835;-73
2022/04/01 08:30:03;;;;;;;3.62;2.65;;;;;;;10.82;77.05;97402.50;4516554;31;34272;-68
2022/04/01 08:32:30;;;;;;;4.95;3.10;;;;;;;10.49;77.62;97412.78;4517124;31;34113;-72
2022/04/01 08:34:57;;;;;;;4.30;3.10;;;;;;;10.82;76.98;97413.34;4516509;31;33432;-68
2022/04/01 08:37:26;;;;;;;5.18;3.12;;;;;;;10.75;76.49;97419.22;4516788;31;33802;-68
2022/04/01 08:39:53;;;;;;;4.57;3.08;;;;;;;10.61;75.84;97418.47;4516701;31;35060;-70
2022/04/01 08:42:22;;;;;;;4.22;2.80;;;;;;;10.37;77.92;97422.25;4516774;31;34853;-75
2022/04/01 08:44:51;;;;;;;4.53;2.70;;;;;;;10.22;78.96;97420.62;4516041;31;33362;-75
2022/04/01 08:47:19;;;;;;;6.72;3.45;;;;;;;9.93;79.96;97422.88;4516854;31;34361;-73
2022/04/01 08:49:47;;;;;;;4.90;3.33;;;;;;;9.97;79.61;97432.78;4516523;31;34828;-69
2022/04/01 08:52:15;;;;;;;5.50;3.35;;;;;;;10.51;77.10;97433.06;4516609;31;34636;-76
2022/04/01 08:54:42;;;;;;;9.25;4.50;;;;;;;10.16;78.17;97440.81;4510311;31;33616;-66
2022/04/01 08:57:10;;;;;;;5.53;3.25;;;;;;;10.08;78.84;97441.50;4500648;31;34335;-66
2022/04/01 08:59:38;;;;;;;5.20;3.53;;;;;;;10.32;78.20;97446.72;4500804;31;33909;-65
2022/04/01 09:02:10;;;;;;;5.05;3.65;;;;;;;10.56;76.23;97449.22;4500873;31;34211;-69
2022/04/01 09:04:38;;;;;;;5.72;3.40;;;;;;;10.17;79.01;97449.72;4514589;31;33487;-71
2022/04/01 09:07:14;;;;;;;5.15;3.00;;;;;;;10.43;77.23;97445.44;4516608;31;33962;-74
2022/04/01 09:09:43;;;;;;;7.12;3.35;;;;;;;10.69;76.59;97442.16;4516407;31;34931;-65
2022/04/01 09:12:16;;;;;;;5.50;3.47;;;;;;;10.34;77.46;97446.44;4516437;31;34845;-67
2022/04/01 09:14:53;;;;;;;5.45;3.45;;;;;;;10.65;76.71;97444.66;4516485;31;33490;-67
2022/04/01 09:17:22;;;;;;;5.12;3.25;;;;;;;10.01;79.78;97441.91;4515317;31;34203;-74
2022/04/01 09:20:05;;;;;;;5.57;3.50;;;;;;;10.53;77.07;97447.09;4516421;31;35104;-69
2022/04/01 09:22:32;;;;;;;5.12;3.33;;;;;;;10.55;77.38;97444.88;4516405;31;33684;-67
2022/04/01 09:25:14;;;;;;;5.43;3.33;;;;;;;10.65;76.48;97449.31;4516306;31;33724;-74
2022/04/01 09:27:52;;;;;;;5.45;3.30;;;;;;;10.68;74.85;97454.91;4516570;31;33639;-66
2022/04/01 09:30:27;;;;;;;5.05;3.53;;;;;;;10.24;76.92;97456.37;4516495;31;35076;-69
2022/04/01 09:32:59;;;;;;;5.75;3.80;;;;;;;10.28;75.33;97453.88;4515895;31;33858;-73
2022/04/01 09:35:29;;;;;;;5.53;3.67;;;;;;;10.19;77.22;97461.06;4516214;31;33344;-66
2022/04/01 09:38:03;;;;;;;4.75;3.08;;;;;;;10.21;75.81;97461.56;4516905;31;34686;-68
2022/04/01 09:40:35;;;;;;;6.72;3.65;;;;;;;10.30;75.44;97464.41;4516053;31;35020;-69
2022/04/01 09:43:07;;;;;;;5.15;3.50;;;;;;;10.33;75.28;97461.91;4516676;31;34066;-67
2022/04/01 09:45:38;;;;;;;6.40;3.87;;;;;;;9.80;77.10;97463.19;4514768;31;33716;-67
2022/04/01 09:48:09;;;;;;;6.22;3.85;;;;;;;9.28;79.96;97467.09;4516587;31;34591;-67
2022/04/01 09:50:40;;;;;;;5.55;3.80;;;;;;;9.28;81.09;97470.59;4515174;31;34815;-67
2022/04/01 09:53:19;;;;;;;6.50;3.87;;;;;;;9.17;80.99;97461.84;4516495;31;34250;-65
2022/04/01 09:55:49;;;;;;;5.32;3.25;;;;;;;9.06;82.32;97471.22;4515849;31;33803;-69
2022/04/01 09:58:20;;;;;;;5.03;3.40;;;;;;;8.91;81.94;97471.47;4514966;31;33598;-66
2022/04/01 10:00:48;;;;;;;6.65;3.90;;;;;;;8.67;83.91;97474.25;4516468;31;34586;-66
2022/04/01 10:03:17;;;;;;;5.90;4.10;;;;;;;8.57;85.08;97469.78;4516404;31;34372;-70
2022/04/01 10:05:45;;;;;;;5.90;4.07;;;;;;;8.59;85.53;97479.22;4515349;31;33646;-66
2022/04/01 10:08:14;;;;;;;5.45;4.05;;;;;;;8.44;85.73;97482.12;4515402;31;32315;-72
2022/04/01 10:10:44;;;;;;;8.38;5.22;;;;;;;8.37;85.60;97482.44;4516149;31;34097;-67
2022/04/01 10:13:20;;;;;;;8.88;5.35;;;;;;;8.16;87.38;97481.91;4515070;31;34138;-64
2022/04/01 10:15:49;;;;;;;8.10;5.20;;;;;;;8.93;83.50;97489.00;4514805;31;33940;-66
2022/04/01 10:18:40;;;;;;;8.48;5.20;;;;;;;8.66;84.36;97481.56;4515322;31;33877;-66
2022/04/01 10:21:09;;;;;;;9.30;5.68;;;;;;;9.45;80.62;97489.00;4514974;31;34094;-70
2022/04/01 10:23:40;;;;;;;9.43;6.50;;;;;;;8.98;82.05;97497.03;4514934;31;34977;-67
2022/04/01 10:26:13;;;;;;;11.75;7.05;;;;;;;8.59;83.78;97498.12;4514288;31;33730;-70
2022/04/01 10:28:44;;;;;;;10.07;6.85;;;;;;;9.20;81.99;97501.03;4514897;31;33824;-72
2022/04/01 10:31:18;;;;;;;9.10;6.10;;;;;;;8.54;82.99;97505.53;4515125;31;33978;-74
2022/04/01 10:33:47;;;;;;;8.63;5.80;;;;;;;8.81;83.70;97505.69;4516109;31;34299;-72
2022/04/01 10:36:15;;;;;;;11.52;6.50;;;;;;;8.89;81.57;97511.53;4515564;31;34408;-67
2022/04/01 10:38:47;;;;;;;10.23;6.55;;;;;;;8.27;83.95;97515.03;4516266;31;33886;-67
2022/04/01 10:41:18;;;;;;;11.90;7.62;;;;;;;8.78;81.71;97505.47;4516372;31;34259;-65
2022/04/01 10:43:51;;;;;;;12.57;8.95;;;;;;;9.06;81.12;97508.31;4515857;31;34199;-66
2022/04/01 10:46:19;;;;;;;12.73;8.35;;;;;;;9.22;80.29;97520.47;4515592;31;33411;-67
2022/04/01 10:52:18;;;;;;;11.20;7.57;;;;;;;8.78;80.03;97524.37;4515868;31;34973;-69
2022/04/01 10:54:47;;;;;;;13.18;8.55;;;;;;;9.16;80.50;97527.88;4515287;31;33944;-65
2022/04/01 10:57:29;;;;;;;14.93;9.23;;;;;;;9.21;80.58;97521.59;4515652;31;34653;-70
2022/04/01 11:00:08;;;;;;;12.75;7.95;;;;;;;9.41;81.39;97529.38;4515814;31;34492;-65
2022/04/01 11:02:35;;;;;;;13.43;8.30;;;;;;;9.53;79.67;97528.12;4514323;31;35053;-65
2022/04/01 11:05:23;;;;;;;15.27;10.68;;;;;;;9.83;78.84;97521.38;4515465;31;35398;-69
2022/04/01 11:08:19;;;;;;;12.77;8.68;;;;;;;10.18;76.93;97529.94;4515673;31;33543;-66
2022/04/01 11:11:07;;;;;;;12.13;8.57;;;;;;;10.09;76.98;97529.84;4515282;31;33993;-72
2022/04/01 11:13:36;;;;;;;11.23;7.62;;;;;;;9.61;79.28;97530.97;4515670;31;33962;-77
2022/04/01 11:16:25;;;;;;;10.55;6.72;;;;;;;9.51;79.15;97539.25;4514039;31;34349;-67
2022/04/01 11:19:25;;;;;;;12.23;8.13;;;;;;;9.87;78.39;97533.22;4515898;31;34220;-67
2022/04/01 11:21:53;;;;;;;9.80;7.07;;;;;;;10.04;77.39;97533.44;4515588;31;33571;-69
2022/04/01 11:24:30;;;;;;;11.07;7.82;;;;;;;10.35;76.29;97534.78;4515718;31;35137;-66
2022/04/01 11:27:27;;;;;;;11.80;7.87;;;;;;;10.40;76.18;97531.97;4515204;31;34826;-67
2022/04/01 11:30:06;;;;;;;12.70;8.25;;;;;;;9.81;77.77;97535.22;4501063;31;33523;-66
2022/04/01 11:32:35;;;;;;;13.82;7.95;;;;;;;9.31;80.10;97536.84;4509691;31;34705;-64
2022/04/01 11:35:04;;;;;;;14.35;8.05;;;;;;;8.70;82.40;97535.84;4511838;31;34821;-75
2022/04/01 11:37:36;;;;;;;12.05;8.15;;;;;;;9.27;79.06;97538.56;4514513;31;34340;-67
2022/04/01 11:40:12;;;;;;;15.18;8.88;;;;;;;9.10;80.60;97533.66;4514976;31;34672;-71
2022/04/01 11:42:58;;;;;;;11.98;8.50;;;;;;;9.34;79.11;97542.47;4515034;31;33852;-68
2022/04/01 11:45:31;;;;;;;12.27;8.73;;;;;;;9.21;79.04;97537.81;4513773;31;33962;-68
2022/04/01 11:47:59;;;;;;;13.80;9.00;;;;;;;8.68;82.82;97541.53;4514162;31;35038;-74
2022/04/01 11:50:27;;;;;;;12.23;8.70;;;;;;;9.33;80.53;97534.66;4514573;31;33779;-67
2022/04/01 11:52:56;;;;;;;12.48;8.40;;;;;;;9.75;78.87;97532.88;4514609;31;33827;-65